createdAt,value
2022-09-15T00:00:18.391Z,9.00
2022-09-15T00:02:50.598Z,9.00
2022-09-15T00:05:21.800Z,10.60
2022-09-15T00:07:55.860Z,14.70
2022-09-15T00:10:28.930Z,11.30
2022-09-15T00:12:59.239Z,9.60
2022-09-15T00:15:30.949Z,14.20
2022-09-15T00:18:04.711Z,10.10
2022-09-15T00:20:36.420Z,10.80
2022-09-15T00:23:08.842Z,14.70
2022-09-15T00:25:47.052Z,11.40
2022-09-15T00:28:21.166Z,10.80
2022-09-15T00:30:53.904Z,10.80
2022-09-15T00:33:28.739Z,13.90
2022-09-15T00:36:07.444Z,11.20
2022-09-15T00:38:38.894Z,13.20
2022-09-15T00:41:18.853Z,13.50
2022-09-15T00:43:53.195Z,13.10
2022-09-15T00:46:26.355Z,11.10
2022-09-15T00:49:04.571Z,11.50
2022-09-15T00:51:44.195Z,12.00
2022-09-15T00:54:19.015Z,11.50
2022-09-15T00:56:53.534Z,10.10
2022-09-15T00:59:27.629Z,13.20
2022-09-15T01:02:04.785Z,11.40
2022-09-15T01:04:37.483Z,10.80
2022-09-15T01:07:12.362Z,9.80
2022-09-15T01:09:48.645Z,9.30
2022-09-15T01:12:20.525Z,8.70
2022-09-15T01:14:51.795Z,7.90
2022-09-15T01:17:36.007Z,8.30
2022-09-15T01:20:51.624Z,8.30
2022-09-15T01:23:55.439Z,7.90
2022-09-15T01:26:56.459Z,9.80
2022-09-15T01:29:46.864Z,9.10
2022-09-15T01:32:40.429Z,10.10
2022-09-15T01:35:23.629Z,8.00
2022-09-15T01:38:00.192Z,6.60
2022-09-15T01:40:34.683Z,7.10
2022-09-15T01:43:07.715Z,6.70
2022-09-15T01:45:44.938Z,6.80
2022-09-15T01:48:19.450Z,8.80
2022-09-15T01:50:57.447Z,7.90
2022-09-15T01:53:31.237Z,7.60
2022-09-15T01:56:07.578Z,8.50
2022-09-15T01:58:43.628Z,7.70
2022-09-15T02:01:18.600Z,9.00
2022-09-15T02:03:54.934Z,8.80
2022-09-15T02:06:41.292Z,11.70
2022-09-15T02:09:19.443Z,13.30
2022-09-15T02:11:59.619Z,11.40
2022-09-15T02:14:43.131Z,12.50
2022-09-15T02:17:17.668Z,15.00
2022-09-15T02:19:52.108Z,15.30
2022-09-15T02:22:30.194Z,11.60
2022-09-15T02:25:07.126Z,15.60
2022-09-15T02:30:15.400Z,17.50
2022-09-15T02:32:52.019Z,15.30
2022-09-15T02:35:24.242Z,17.80
2022-09-15T02:37:57.868Z,14.30
2022-09-15T02:40:31.828Z,14.80
